Terminal Aerodrome Forecast
Issued by NWS

Current Version | Previous Version | Text Only | Print | Product List | Glossary Off
Versions: 1 2 3 4 5 6 7 8 9 10 11 12 13 14 15 16 17 18 19 20 21 22 23 24 25 26 27 28 29 30 31 32 33 34 35 36 37 38 39

470
FTUS41 KRNK 281244 CCA
TAFLWB
TAF COR
KLWB 281244Z 2813/2912 00000KT 6SM -SHRA BKN020 OVC040
      TEMPO 2813/2815 2SM SHRA OVC035
     FM281500 25005KT P6SM BKN050
     FM281700 27009G18KT P6SM BKN040
     FM282300 30007KT P6SM BKN200
     FM290300 31004KT P6SM SCT025=

USA.gov is the U.S. government's official web portal to all federal, state and local government web resources and services.